sensor_id;sensor_type;location;lat;lon;timestamp;temperature;humidity
71088;SHT31;58747;50.674;4.616;2022-07-04T00:02:08;13.88;79.91
71088;SHT31;58747;50.674;4.616;2022-07-04T00:04:33;13.83;79.98
71088;SHT31;58747;50.674;4.616;2022-07-04T00:06:59;13.83;80.00
71088;SHT31;58747;50.674;4.616;2022-07-04T00:09:24;13.83;80.11
71088;SHT31;58747;50.674;4.616;2022-07-04T00:11:50;13.78;80.33
71088;SHT31;58747;50.674;4.616;2022-07-04T00:14:15;13.77;80.33
71088;SHT31;58747;50.674;4.616;2022-07-04T00:16:40;13.77;80.38
71088;SHT31;58747;50.674;4.616;2022-07-04T00:19:06;13.69;80.52
71088;SHT31;58747;50.674;4.616;2022-07-04T00:21:31;13.67;80.55
71088;SHT31;58747;50.674;4.616;2022-07-04T00:23:56;13.66;80.72
71088;SHT31;58747;50.674;4.616;2022-07-04T00:26:22;13.64;80.78
71088;SHT31;58747;50.674;4.616;2022-07-04T00:28:47;13.66;80.67
71088;SHT31;58747;50.674;4.616;2022-07-04T00:31:13;13.62;80.86
71088;SHT31;58747;50.674;4.616;2022-07-04T00:33:38;13.59;81.01
71088;SHT31;58747;50.674;4.616;2022-07-04T00:36:04;13.52;81.02
71088;SHT31;58747;50.674;4.616;2022-07-04T00:38:29;13.49;81.27
71088;SHT31;58747;50.674;4.616;2022-07-04T00:40:55;13.47;81.18
71088;SHT31;58747;50.674;4.616;2022-07-04T00:43:24;13.43;81.12
71088;SHT31;58747;50.674;4.616;2022-07-04T00:45:50;13.40;81.22
71088;SHT31;58747;50.674;4.616;2022-07-04T00:48:15;13.39;81.35
71088;SHT31;58747;50.674;4.616;2022-07-04T00:50:45;13.33;81.77
71088;SHT31;58747;50.674;4.616;2022-07-04T00:53:13;13.36;81.76
71088;SHT31;58747;50.674;4.616;2022-07-04T00:55:38;13.38;81.79
71088;SHT31;58747;50.674;4.616;2022-07-04T00:58:04;13.35;81.91
71088;SHT31;58747;50.674;4.616;2022-07-04T01:00:30;13.32;81.99
71088;SHT31;58747;50.674;4.616;2022-07-04T01:02:55;13.29;82.07
71088;SHT31;58747;50.674;4.616;2022-07-04T01:05:20;13.29;82.11
71088;SHT31;58747;50.674;4.616;2022-07-04T01:07:46;13.29;82.09
71088;SHT31;58747;50.674;4.616;2022-07-04T01:10:11;13.29;82.00
71088;SHT31;58747;50.674;4.616;2022-07-04T01:12:37;13.30;82.00
71088;SHT31;58747;50.674;4.616;2022-07-04T01:15:04;13.27;82.45
71088;SHT31;58747;50.674;4.616;2022-07-04T01:17:30;13.20;82.69
71088;SHT31;58747;50.674;4.616;2022-07-04T01:19:55;13.20;82.63
71088;SHT31;58747;50.674;4.616;2022-07-04T01:22:20;13.22;82.48
71088;SHT31;58747;50.674;4.616;2022-07-04T01:24:47;13.19;82.42
71088;SHT31;58747;50.674;4.616;2022-07-04T01:27:14;13.15;82.32
71088;SHT31;58747;50.674;4.616;2022-07-04T01:29:40;13.11;82.55
71088;SHT31;58747;50.674;4.616;2022-07-04T01:32:06;13.04;82.66
71088;SHT31;58747;50.674;4.616;2022-07-04T01:34:32;13.01;82.96
71088;SHT31;58747;50.674;4.616;2022-07-04T01:36:59;12.95;82.98
71088;SHT31;58747;50.674;4.616;2022-07-04T01:39:25;12.94;83.04
71088;SHT31;58747;50.674;4.616;2022-07-04T01:41:51;12.91;82.98
71088;SHT31;58747;50.674;4.616;2022-07-04T01:44:16;12.84;82.94
71088;SHT31;58747;50.674;4.616;2022-07-04T01:46:41;12.83;83.07
71088;SHT31;58747;50.674;4.616;2022-07-04T01:49:07;12.80;83.12
71088;SHT31;58747;50.674;4.616;2022-07-04T01:51:33;12.80;83.22
71088;SHT31;58747;50.674;4.616;2022-07-04T01:53:59;12.80;83.38
71088;SHT31;58747;50.674;4.616;2022-07-04T01:56:24;12.80;83.58
71088;SHT31;58747;50.674;4.616;2022-07-04T01:58:50;12.80;83.29
71088;SHT31;58747;50.674;4.616;2022-07-04T02:01:15;12.75;83.49
71088;SHT31;58747;50.674;4.616;2022-07-04T02:03:59;12.74;83.59
71088;SHT31;58747;50.674;4.616;2022-07-04T02:06:25;12.75;83.56
71088;SHT31;58747;50.674;4.616;2022-07-04T02:08:51;12.73;83.56
71088;SHT31;58747;50.674;4.616;2022-07-04T02:11:36;12.68;83.56
71088;SHT31;58747;50.674;4.616;2022-07-04T02:14:20;12.67;83.67
71088;SHT31;58747;50.674;4.616;2022-07-04T02:16:46;12.65;83.78
71088;SHT31;58747;50.674;4.616;2022-07-04T02:19:11;12.67;83.93
71088;SHT31;58747;50.674;4.616;2022-07-04T02:21:36;12.64;83.89
71088;SHT31;58747;50.674;4.616;2022-07-04T02:24:02;12.61;83.95
71088;SHT31;58747;50.674;4.616;2022-07-04T02:26:27;12.61;84.19
71088;SHT31;58747;50.674;4.616;2022-07-04T02:28:53;12.61;84.21
71088;SHT31;58747;50.674;4.616;2022-07-04T02:31:18;12.60;84.24
71088;SHT31;58747;50.674;4.616;2022-07-04T02:33:44;12.58;84.12
71088;SHT31;58747;50.674;4.616;2022-07-04T02:36:09;12.54;84.12
71088;SHT31;58747;50.674;4.616;2022-07-04T02:38:34;12.50;84.25
71088;SHT31;58747;50.674;4.616;2022-07-04T02:41:00;12.47;84.41
71088;SHT31;58747;50.674;4.616;2022-07-04T02:43:25;12.44;84.73
71088;SHT31;58747;50.674;4.616;2022-07-04T02:45:51;12.43;85.02
71088;SHT31;58747;50.674;4.616;2022-07-04T02:48:17;12.41;84.89
71088;SHT31;58747;50.674;4.616;2022-07-04T02:50:42;12.44;84.43
71088;SHT31;58747;50.674;4.616;2022-07-04T02:53:07;12.41;84.92
71088;SHT31;58747;50.674;4.616;2022-07-04T02:55:33;12.43;84.66
71088;SHT31;58747;50.674;4.616;2022-07-04T02:57:58;12.43;84.99
71088;SHT31;58747;50.674;4.616;2022-07-04T03:00:24;12.40;84.64
71088;SHT31;58747;50.674;4.616;2022-07-04T03:02:49;12.36;84.59
71088;SHT31;58747;50.674;4.616;2022-07-04T03:05:15;12.33;84.68
71088;SHT31;58747;50.674;4.616;2022-07-04T03:07:40;12.33;84.94
71088;SHT31;58747;50.674;4.616;2022-07-04T03:10:06;12.27;84.77
71088;SHT31;58747;50.674;4.616;2022-07-04T03:12:31;12.26;85.00
71088;SHT31;58747;50.674;4.616;2022-07-04T03:14:57;12.27;84.97
71088;SHT31;58747;50.674;4.616;2022-07-04T03:17:27;12.25;84.98
71088;SHT31;58747;50.674;4.616;2022-07-04T03:19:54;12.23;85.27
71088;SHT31;58747;50.674;4.616;2022-07-04T03:22:19;12.27;85.51
71088;SHT31;58747;50.674;4.616;2022-07-04T03:24:44;12.27;85.48
71088;SHT31;58747;50.674;4.616;2022-07-04T03:27:11;12.27;85.35
71088;SHT31;58747;50.674;4.616;2022-07-04T03:29:36;12.27;85.43
71088;SHT31;58747;50.674;4.616;2022-07-04T03:32:02;12.29;85.75
71088;SHT31;58747;50.674;4.616;2022-07-04T03:34:27;12.26;85.81
71088;SHT31;58747;50.674;4.616;2022-07-04T03:36:53;12.29;85.68
71088;SHT31;58747;50.674;4.616;2022-07-04T03:39:18;12.29;85.79
71088;SHT31;58747;50.674;4.616;2022-07-04T03:41:43;12.25;85.78
71088;SHT31;58747;50.674;4.616;2022-07-04T03:44:09;12.23;85.63
71088;SHT31;58747;50.674;4.616;2022-07-04T03:46:34;12.22;85.68
71088;SHT31;58747;50.674;4.616;2022-07-04T03:48:59;12.22;85.70
71088;SHT31;58747;50.674;4.616;2022-07-04T03:51:25;12.19;85.81
71088;SHT31;58747;50.674;4.616;2022-07-04T03:53:50;12.22;85.80
71088;SHT31;58747;50.674;4.616;2022-07-04T03:56:16;12.22;85.58
71088;SHT31;58747;50.674;4.616;2022-07-04T03:58:42;12.20;85.67
71088;SHT31;58747;50.674;4.616;2022-07-04T04:01:08;12.16;85.66
71088;SHT31;58747;50.674;4.616;2022-07-04T04:03:34;12.19;85.51
71088;SHT31;58747;50.674;4.616;2022-07-04T04:06:17;12.19;85.78
71088;SHT31;58747;50.674;4.616;2022-07-04T04:08:43;12.20;85.99
71088;SHT31;58747;50.674;4.616;2022-07-04T04:11:08;12.23;85.71
71088;SHT31;58747;50.674;4.616;2022-07-04T04:13:34;12.23;85.96
71088;SHT31;58747;50.674;4.616;2022-07-04T04:15:59;12.25;85.82
71088;SHT31;58747;50.674;4.616;2022-07-04T04:18:24;12.26;86.11
71088;SHT31;58747;50.674;4.616;2022-07-04T04:20:50;12.26;85.90
71088;SHT31;58747;50.674;4.616;2022-07-04T04:23:15;12.22;85.73
71088;SHT31;58747;50.674;4.616;2022-07-04T04:25:41;12.29;85.68
71088;SHT31;58747;50.674;4.616;2022-07-04T04:28:06;12.27;85.89
71088;SHT31;58747;50.674;4.616;2022-07-04T04:30:31;12.26;85.53
71088;SHT31;58747;50.674;4.616;2022-07-04T04:32:57;12.33;85.46
71088;SHT31;58747;50.674;4.616;2022-07-04T04:35:22;12.30;85.45
71088;SHT31;58747;50.674;4.616;2022-07-04T04:37:47;12.30;85.59
71088;SHT31;58747;50.674;4.616;2022-07-04T04:40:13;12.29;85.64
71088;SHT31;58747;50.674;4.616;2022-07-04T04:42:40;12.29;85.47
71088;SHT31;58747;50.674;4.616;2022-07-04T04:45:05;12.34;85.20
71088;SHT31;58747;50.674;4.616;2022-07-04T04:47:31;12.37;85.40
71088;SHT31;58747;50.674;4.616;2022-07-04T04:49:56;12.37;85.51
71088;SHT31;58747;50.674;4.616;2022-07-04T04:52:21;12.36;85.32
71088;SHT31;58747;50.674;4.616;2022-07-04T04:54:47;12.34;85.54
71088;SHT31;58747;50.674;4.616;2022-07-04T04:57:12;12.38;85.70
71088;SHT31;58747;50.674;4.616;2022-07-04T04:59:37;12.37;85.37
71088;SHT31;58747;50.674;4.616;2022-07-04T05:02:03;12.43;85.66
71088;SHT31;58747;50.674;4.616;2022-07-04T05:04:28;12.44;85.53
71088;SHT31;58747;50.674;4.616;2022-07-04T05:06:54;12.47;85.62
71088;SHT31;58747;50.674;4.616;2022-07-04T05:09:20;12.46;85.71
71088;SHT31;58747;50.674;4.616;2022-07-04T05:11:46;12.54;85.40
71088;SHT31;58747;50.674;4.616;2022-07-04T05:14:12;12.58;85.09
71088;SHT31;58747;50.674;4.616;2022-07-04T05:16:38;12.63;84.72
71088;SHT31;58747;50.674;4.616;2022-07-04T05:19:03;12.71;84.34
71088;SHT31;58747;50.674;4.616;2022-07-04T05:21:28;12.71;84.47
71088;SHT31;58747;50.674;4.616;2022-07-04T05:23:55;12.73;84.11
71088;SHT31;58747;50.674;4.616;2022-07-04T05:26:20;12.77;84.08
71088;SHT31;58747;50.674;4.616;2022-07-04T05:28:45;12.81;84.00
71088;SHT31;58747;50.674;4.616;2022-07-04T05:31:11;12.88;84.17
71088;SHT31;58747;50.674;4.616;2022-07-04T05:33:36;12.95;83.37
71088;SHT31;58747;50.674;4.616;2022-07-04T05:36:01;12.98;83.06
71088;SHT31;58747;50.674;4.616;2022-07-04T05:38:27;13.04;82.93
71088;SHT31;58747;50.674;4.616;2022-07-04T05:40:52;13.27;82.04
71088;SHT31;58747;50.674;4.616;2022-07-04T05:43:18;13.78;80.36
71088;SHT31;58747;50.674;4.616;2022-07-04T05:45:43;14.48;77.58
71088;SHT31;58747;50.674;4.616;2022-07-04T05:48:09;15.01;75.55
71088;SHT31;58747;50.674;4.616;2022-07-04T05:50:34;15.49;73.84
71088;SHT31;58747;50.674;4.616;2022-07-04T05:53:00;15.82;72.20
71088;SHT31;58747;50.674;4.616;2022-07-04T05:55:25;16.14;71.33
71088;SHT31;58747;50.674;4.616;2022-07-04T05:57:51;16.68;70.01
71088;SHT31;58747;50.674;4.616;2022-07-04T06:00:16;16.81;68.94
71088;SHT31;58747;50.674;4.616;2022-07-04T06:02:42;17.39;67.33
71088;SHT31;58747;50.674;4.616;2022-07-04T06:05:08;17.46;66.15
71088;SHT31;58747;50.674;4.616;2022-07-04T06:07:33;17.95;65.52
71088;SHT31;58747;50.674;4.616;2022-07-04T06:09:58;18.43;64.59
71088;SHT31;58747;50.674;4.616;2022-07-04T06:12:24;18.80;62.91
71088;SHT31;58747;50.674;4.616;2022-07-04T06:14:49;18.63;62.97
71088;SHT31;58747;50.674;4.616;2022-07-04T06:17:14;18.76;63.10
71088;SHT31;58747;50.674;4.616;2022-07-04T06:19:40;19.51;60.99
71088;SHT31;58747;50.674;4.616;2022-07-04T06:22:05;19.65;60.54
71088;SHT31;58747;50.674;4.616;2022-07-04T06:24:30;20.06;59.31
71088;SHT31;58747;50.674;4.616;2022-07-04T06:26:56;20.43;58.40
71088;SHT31;58747;50.674;4.616;2022-07-04T06:29:21;20.64;57.27
71088;SHT31;58747;50.674;4.616;2022-07-04T06:31:47;20.20;56.90
71088;SHT31;58747;50.674;4.616;2022-07-04T06:34:13;20.75;56.49
71088;SHT31;58747;50.674;4.616;2022-07-04T06:36:56;20.16;57.08
71088;SHT31;58747;50.674;4.616;2022-07-04T06:39:22;20.58;56.13
71088;SHT31;58747;50.674;4.616;2022-07-04T06:41:47;20.82;56.26
71088;SHT31;58747;50.674;4.616;2022-07-04T06:44:13;20.51;55.95
71088;SHT31;58747;50.674;4.616;2022-07-04T06:46:38;20.61;56.21
71088;SHT31;58747;50.674;4.616;2022-07-04T06:49:03;20.74;55.94
71088;SHT31;58747;50.674;4.616;2022-07-04T06:51:29;19.79;58.74
71088;SHT31;58747;50.674;4.616;2022-07-04T06:53:54;20.25;58.09
71088;SHT31;58747;50.674;4.616;2022-07-04T06:56:19;19.98;58.71
71088;SHT31;58747;50.674;4.616;2022-07-04T06:58:45;19.51;59.80
71088;SHT31;58747;50.674;4.616;2022-07-04T07:01:10;18.76;62.01
71088;SHT31;58747;50.674;4.616;2022-07-04T07:03:36;19.18;62.03
71088;SHT31;58747;50.674;4.616;2022-07-04T07:06:01;19.36;61.15
71088;SHT31;58747;50.674;4.616;2022-07-04T07:08:28;19.24;61.64
71088;SHT31;58747;50.674;4.616;2022-07-04T07:10:57;19.14;61.93
71088;SHT31;58747;50.674;4.616;2022-07-04T07:13:23;19.29;61.63
71088;SHT31;58747;50.674;4.616;2022-07-04T07:15:48;19.46;61.40
71088;SHT31;58747;50.674;4.616;2022-07-04T07:18:14;19.42;61.51
71088;SHT31;58747;50.674;4.616;2022-07-04T07:20:39;19.59;61.63
71088;SHT31;58747;50.674;4.616;2022-07-04T07:23:05;19.72;60.60
71088;SHT31;58747;50.674;4.616;2022-07-04T07:25:31;20.06;59.68
71088;SHT31;58747;50.674;4.616;2022-07-04T07:27:57;20.06;59.93
71088;SHT31;58747;50.674;4.616;2022-07-04T07:30:22;20.17;60.80
71088;SHT31;58747;50.674;4.616;2022-07-04T07:32:47;20.06;59.92
71088;SHT31;58747;50.674;4.616;2022-07-04T07:35:13;20.10;59.70
71088;SHT31;58747;50.674;4.616;2022-07-04T07:37:40;20.20;59.79
71088;SHT31;58747;50.674;4.616;2022-07-04T07:40:06;20.24;59.13
71088;SHT31;58747;50.674;4.616;2022-07-04T07:42:31;20.37;59.82
71088;SHT31;58747;50.674;4.616;2022-07-04T07:44:57;20.55;58.68
71088;SHT31;58747;50.674;4.616;2022-07-04T07:47:22;20.75;58.75
71088;SHT31;58747;50.674;4.616;2022-07-04T07:49:48;21.04;57.83
71088;SHT31;58747;50.674;4.616;2022-07-04T07:52:14;21.24;56.37
71088;SHT31;58747;50.674;4.616;2022-07-04T07:54:40;21.16;55.77
71088;SHT31;58747;50.674;4.616;2022-07-04T07:57:06;21.09;56.53
71088;SHT31;58747;50.674;4.616;2022-07-04T07:59:31;21.22;56.69
71088;SHT31;58747;50.674;4.616;2022-07-04T08:01:57;21.09;58.13
71088;SHT31;58747;50.674;4.616;2022-07-04T08:04:22;21.55;56.54
71088;SHT31;58747;50.674;4.616;2022-07-04T08:07:03;21.91;56.44
71088;SHT31;58747;50.674;4.616;2022-07-04T08:09:29;22.09;56.11
71088;SHT31;58747;50.674;4.616;2022-07-04T08:11:55;21.85;55.44
71088;SHT31;58747;50.674;4.616;2022-07-04T08:14:20;21.71;55.25
71088;SHT31;58747;50.674;4.616;2022-07-04T08:16:46;21.97;54.89
71088;SHT31;58747;50.674;4.616;2022-07-04T08:19:11;22.06;54.06
71088;SHT31;58747;50.674;4.616;2022-07-04T08:21:36;21.88;55.17
71088;SHT31;58747;50.674;4.616;2022-07-04T08:24:02;22.13;54.07
71088;SHT31;58747;50.674;4.616;2022-07-04T08:26:27;22.23;53.82
71088;SHT31;58747;50.674;4.616;2022-07-04T08:28:53;22.52;53.48
71088;SHT31;58747;50.674;4.616;2022-07-04T08:31:20;22.59;52.44
71088;SHT31;58747;50.674;4.616;2022-07-04T08:33:46;22.49;53.50
71088;SHT31;58747;50.674;4.616;2022-07-04T08:36:12;22.06;53.07
71088;SHT31;58747;50.674;4.616;2022-07-04T08:38:38;22.18;53.10
71088;SHT31;58747;50.674;4.616;2022-07-04T08:41:03;22.40;52.28
71088;SHT31;58747;50.674;4.616;2022-07-04T08:43:30;22.60;51.84
71088;SHT31;58747;50.674;4.616;2022-07-04T08:45:59;22.56;52.09
71088;SHT31;58747;50.674;4.616;2022-07-04T08:48:25;22.73;49.37
71088;SHT31;58747;50.674;4.616;2022-07-04T08:50:59;22.59;50.39
71088;SHT31;58747;50.674;4.616;2022-07-04T08:53:30;22.64;50.69
71088;SHT31;58747;50.674;4.616;2022-07-04T08:55:56;22.48;50.15
71088;SHT31;58747;50.674;4.616;2022-07-04T08:58:42;22.59;49.13
71088;SHT31;58747;50.674;4.616;2022-07-04T09:01:09;22.73;49.46
71088;SHT31;58747;50.674;4.616;2022-07-04T09:03:41;23.03;48.18
71088;SHT31;58747;50.674;4.616;2022-07-04T09:06:08;22.70;50.45
71088;SHT31;58747;50.674;4.616;2022-07-04T09:08:33;22.96;48.36
71088;SHT31;58747;50.674;4.616;2022-07-04T09:10:59;22.94;48.75
71088;SHT31;58747;50.674;4.616;2022-07-04T09:13:24;23.48;47.17
71088;SHT31;58747;50.674;4.616;2022-07-04T09:15:51;23.07;47.48
71088;SHT31;58747;50.674;4.616;2022-07-04T09:20:59;23.42;46.86
71088;SHT31;58747;50.674;4.616;2022-07-04T09:23:28;23.52;49.34
71088;SHT31;58747;50.674;4.616;2022-07-04T09:28:43;23.73;46.00
71088;SHT31;58747;50.674;4.616;2022-07-04T09:31:20;23.89;45.79
71088;SHT31;58747;50.674;4.616;2022-07-04T09:33:49;23.54;45.51
71088;SHT31;58747;50.674;4.616;2022-07-04T09:36:16;23.55;46.55
71088;SHT31;58747;50.674;4.616;2022-07-04T09:38:43;23.46;43.69
71088;SHT31;58747;50.674;4.616;2022-07-04T09:41:08;23.67;45.50
71088;SHT31;58747;50.674;4.616;2022-07-04T09:43:59;23.79;44.45
71088;SHT31;58747;50.674;4.616;2022-07-04T09:46:24;23.67;44.60
71088;SHT31;58747;50.674;4.616;2022-07-04T09:48:50;23.73;43.53
71088;SHT31;58747;50.674;4.616;2022-07-04T09:51:42;23.82;46.25
71088;SHT31;58747;50.674;4.616;2022-07-04T09:54:18;23.44;44.70
71088;SHT31;58747;50.674;4.616;2022-07-04T09:56:49;23.77;45.02
71088;SHT31;58747;50.674;4.616;2022-07-04T09:59:14;23.69;44.88
71088;SHT31;58747;50.674;4.616;2022-07-04T10:01:41;23.75;45.03
71088;SHT31;58747;50.674;4.616;2022-07-04T10:04:07;23.73;45.55
71088;SHT31;58747;50.674;4.616;2022-07-04T10:06:37;24.13;44.25
71088;SHT31;58747;50.674;4.616;2022-07-04T10:11:35;24.33;43.81
71088;SHT31;58747;50.674;4.616;2022-07-04T10:14:02;24.60;43.22
71088;SHT31;58747;50.674;4.616;2022-07-04T10:16:30;24.75;45.03
71088;SHT31;58747;50.674;4.616;2022-07-04T10:18:56;24.83;43.70
71088;SHT31;58747;50.674;4.616;2022-07-04T10:21:23;24.83;44.85
71088;SHT31;58747;50.674;4.616;2022-07-04T10:23:49;24.61;44.85
71088;SHT31;58747;50.674;4.616;2022-07-04T10:26:18;24.24;44.68
71088;SHT31;58747;50.674;4.616;2022-07-04T10:28:44;24.41;43.51
71088;SHT31;58747;50.674;4.616;2022-07-04T10:31:10;24.69;43.18
71088;SHT31;58747;50.674;4.616;2022-07-04T10:33:37;24.81;45.59
71088;SHT31;58747;50.674;4.616;2022-07-04T10:36:06;24.79;40.56
71088;SHT31;58747;50.674;4.616;2022-07-04T10:41:18;25.27;42.70
71088;SHT31;58747;50.674;4.616;2022-07-04T10:44:03;25.22;41.93
71088;SHT31;58747;50.674;4.616;2022-07-04T10:46:47;25.09;39.63
71088;SHT31;58747;50.674;4.616;2022-07-04T10:54:35;25.51;40.99
71088;SHT31;58747;50.674;4.616;2022-07-04T10:57:15;25.81;40.13
71088;SHT31;58747;50.674;4.616;2022-07-04T11:02:30;25.46;37.27
71088;SHT31;58747;50.674;4.616;2022-07-04T11:07:54;25.63;37.99
71088;SHT31;58747;50.674;4.616;2022-07-04T11:20:24;29.70;33.85
71088;SHT31;58747;50.674;4.616;2022-07-04T11:22:49;30.55;31.60
71088;SHT31;58747;50.674;4.616;2022-07-04T11:25:15;30.82;30.12
71088;SHT31;58747;50.674;4.616;2022-07-04T11:27:41;29.68;31.61
71088;SHT31;58747;50.674;4.616;2022-07-04T11:30:07;31.52;29.37
71088;SHT31;58747;50.674;4.616;2022-07-04T11:32:35;31.89;30.47
71088;SHT31;58747;50.674;4.616;2022-07-04T11:35:01;30.62;29.69
71088;SHT31;58747;50.674;4.616;2022-07-04T11:37:26;28.07;34.10
71088;SHT31;58747;50.674;4.616;2022-07-04T11:39:53;29.09;33.83
71088;SHT31;58747;50.674;4.616;2022-07-04T11:42:39;27.89;35.79
71088;SHT31;58747;50.674;4.616;2022-07-04T11:45:23;27.55;35.50
71088;SHT31;58747;50.674;4.616;2022-07-04T11:47:48;25.82;37.69
71088;SHT31;58747;50.674;4.616;2022-07-04T11:50:15;25.58;37.85
71088;SHT31;58747;50.674;4.616;2022-07-04T11:52:46;28.48;31.88
71088;SHT31;58747;50.674;4.616;2022-07-04T11:55:14;30.45;31.66
71088;SHT31;58747;50.674;4.616;2022-07-04T11:57:42;32.40;26.30
71088;SHT31;58747;50.674;4.616;2022-07-04T12:00:10;32.40;27.82
71088;SHT31;58747;50.674;4.616;2022-07-04T12:02:36;32.50;28.44
71088;SHT31;58747;50.674;4.616;2022-07-04T12:05:03;32.05;30.33
71088;SHT31;58747;50.674;4.616;2022-07-04T12:07:31;32.92;27.00
71088;SHT31;58747;50.674;4.616;2022-07-04T12:10:11;32.94;27.98
71088;SHT31;58747;50.674;4.616;2022-07-04T12:13:06;32.85;28.23
71088;SHT31;58747;50.674;4.616;2022-07-04T12:15:38;34.45;25.51
71088;SHT31;58747;50.674;4.616;2022-07-04T12:18:04;32.43;27.52
71088;SHT31;58747;50.674;4.616;2022-07-04T12:20:31;30.95;29.74
71088;SHT31;58747;50.674;4.616;2022-07-04T12:22:59;29.17;31.90
71088;SHT31;58747;50.674;4.616;2022-07-04T12:25:29;27.78;35.48
71088;SHT31;58747;50.674;4.616;2022-07-04T12:27:58;26.98;35.61
71088;SHT31;58747;50.674;4.616;2022-07-04T12:30:25;30.00;31.45
71088;SHT31;58747;50.674;4.616;2022-07-04T12:32:53;30.28;29.44
71088;SHT31;58747;50.674;4.616;2022-07-04T12:36:00;32.47;28.28
71088;SHT31;58747;50.674;4.616;2022-07-04T12:41:10;31.37;28.17
71088;SHT31;58747;50.674;4.616;2022-07-04T12:46:14;30.43;31.07
71088;SHT31;58747;50.674;4.616;2022-07-04T12:48:41;28.95;33.55
71088;SHT31;58747;50.674;4.616;2022-07-04T12:51:26;27.79;36.00
71088;SHT31;58747;50.674;4.616;2022-07-04T12:53:56;30.76;29.93
71088;SHT31;58747;50.674;4.616;2022-07-04T12:56:36;32.00;28.69
71088;SHT31;58747;50.674;4.616;2022-07-04T12:59:04;33.81;25.31
71088;SHT31;58747;50.674;4.616;2022-07-04T13:01:30;34.79;26.22
71088;SHT31;58747;50.674;4.616;2022-07-04T13:03:56;34.53;25.21
71088;SHT31;58747;50.674;4.616;2022-07-04T13:06:21;33.12;25.86
71088;SHT31;58747;50.674;4.616;2022-07-04T13:08:47;32.41;29.16
71088;SHT31;58747;50.674;4.616;2022-07-04T13:11:12;31.72;29.49
71088;SHT31;58747;50.674;4.616;2022-07-04T13:13:56;29.71;31.11
71088;SHT31;58747;50.674;4.616;2022-07-04T13:16:22;28.80;36.05
71088;SHT31;58747;50.674;4.616;2022-07-04T13:18:47;27.89;34.64
71088;SHT31;58747;50.674;4.616;2022-07-04T13:21:13;27.10;37.39
71088;SHT31;58747;50.674;4.616;2022-07-04T13:23:38;26.72;40.44
71088;SHT31;58747;50.674;4.616;2022-07-04T13:26:04;26.64;40.60
71088;SHT31;58747;50.674;4.616;2022-07-04T13:28:30;26.35;37.29
71088;SHT31;58747;50.674;4.616;2022-07-04T13:30:55;26.31;38.98
71088;SHT31;58747;50.674;4.616;2022-07-04T13:33:21;26.15;37.40
71088;SHT31;58747;50.674;4.616;2022-07-04T13:35:46;25.66;36.25
71088;SHT31;58747;50.674;4.616;2022-07-04T13:38:11;25.73;36.49
71088;SHT31;58747;50.674;4.616;2022-07-04T13:40:41;25.75;36.43
71088;SHT31;58747;50.674;4.616;2022-07-04T13:43:07;25.73;41.08
71088;SHT31;58747;50.674;4.616;2022-07-04T13:45:35;25.84;39.59
71088;SHT31;58747;50.674;4.616;2022-07-04T13:48:01;25.70;38.73
71088;SHT31;58747;50.674;4.616;2022-07-04T13:50:26;25.75;39.90
71088;SHT31;58747;50.674;4.616;2022-07-04T13:52:52;25.51;38.98
71088;SHT31;58747;50.674;4.616;2022-07-04T13:55:17;25.09;39.97
71088;SHT31;58747;50.674;4.616;2022-07-04T13:57:43;24.98;40.79
71088;SHT31;58747;50.674;4.616;2022-07-04T14:00:09;24.98;40.16
71088;SHT31;58747;50.674;4.616;2022-07-04T14:02:35;24.86;40.37
71088;SHT31;58747;50.674;4.616;2022-07-04T14:05:00;24.88;39.67
71088;SHT31;58747;50.674;4.616;2022-07-04T14:07:26;24.92;39.31
71088;SHT31;58747;50.674;4.616;2022-07-04T14:09:51;25.03;39.49
71088;SHT31;58747;50.674;4.616;2022-07-04T14:12:17;25.12;39.77
71088;SHT31;58747;50.674;4.616;2022-07-04T14:14:43;25.10;42.54
71088;SHT31;58747;50.674;4.616;2022-07-04T14:17:09;25.23;39.15
71088;SHT31;58747;50.674;4.616;2022-07-04T14:19:34;25.22;37.38
71088;SHT31;58747;50.674;4.616;2022-07-04T14:22:00;24.95;39.78
71088;SHT31;58747;50.674;4.616;2022-07-04T14:24:25;25.19;39.22
71088;SHT31;58747;50.674;4.616;2022-07-04T14:26:51;25.31;37.86
71088;SHT31;58747;50.674;4.616;2022-07-04T14:29:17;25.27;39.79
71088;SHT31;58747;50.674;4.616;2022-07-04T14:31:42;25.19;39.35
71088;SHT31;58747;50.674;4.616;2022-07-04T14:34:08;25.16;39.86
71088;SHT31;58747;50.674;4.616;2022-07-04T14:36:36;25.27;40.30
71088;SHT31;58747;50.674;4.616;2022-07-04T14:39:02;24.98;38.35
71088;SHT31;58747;50.674;4.616;2022-07-04T14:41:28;25.16;39.59
71088;SHT31;58747;50.674;4.616;2022-07-04T14:43:53;25.23;40.65
71088;SHT31;58747;50.674;4.616;2022-07-04T14:46:19;25.09;39.09
71088;SHT31;58747;50.674;4.616;2022-07-04T14:48:45;24.89;39.23
71088;SHT31;58747;50.674;4.616;2022-07-04T14:51:11;24.86;36.89
71088;SHT31;58747;50.674;4.616;2022-07-04T14:53:36;25.03;41.82
71088;SHT31;58747;50.674;4.616;2022-07-04T14:56:02;25.09;42.54
71088;SHT31;58747;50.674;4.616;2022-07-04T14:58:28;25.02;36.91
71088;SHT31;58747;50.674;4.616;2022-07-04T15:00:53;24.96;36.92
71088;SHT31;58747;50.674;4.616;2022-07-04T15:03:18;24.95;35.89
71088;SHT31;58747;50.674;4.616;2022-07-04T15:05:44;25.00;35.67
71088;SHT31;58747;50.674;4.616;2022-07-04T15:08:09;24.85;37.07
71088;SHT31;58747;50.674;4.616;2022-07-04T15:10:35;24.91;38.12
71088;SHT31;58747;50.674;4.616;2022-07-04T15:13:00;24.98;38.03
71088;SHT31;58747;50.674;4.616;2022-07-04T15:15:26;24.89;37.13
71088;SHT31;58747;50.674;4.616;2022-07-04T15:17:51;24.96;38.09
71088;SHT31;58747;50.674;4.616;2022-07-04T15:20:18;25.03;39.42
71088;SHT31;58747;50.674;4.616;2022-07-04T15:23:02;25.08;38.09
71088;SHT31;58747;50.674;4.616;2022-07-04T15:25:46;25.08;38.89
71088;SHT31;58747;50.674;4.616;2022-07-04T15:28:11;24.88;37.04
71088;SHT31;58747;50.674;4.616;2022-07-04T15:30:36;24.98;40.17
71088;SHT31;58747;50.674;4.616;2022-07-04T15:33:02;24.99;40.72
71088;SHT31;58747;50.674;4.616;2022-07-04T15:35:27;25.00;37.95
71088;SHT31;58747;50.674;4.616;2022-07-04T15:37:53;24.98;39.60
71088;SHT31;58747;50.674;4.616;2022-07-04T15:40:18;25.03;38.50
71088;SHT31;58747;50.674;4.616;2022-07-04T15:42:43;24.96;37.35
71088;SHT31;58747;50.674;4.616;2022-07-04T15:45:09;25.05;36.87
71088;SHT31;58747;50.674;4.616;2022-07-04T15:47:34;24.82;39.21
71088;SHT31;58747;50.674;4.616;2022-07-04T15:50:00;24.62;38.18
71088;SHT31;58747;50.674;4.616;2022-07-04T15:52:26;24.69;41.37
71088;SHT31;58747;50.674;4.616;2022-07-04T15:54:53;24.71;38.56
71088;SHT31;58747;50.674;4.616;2022-07-04T15:57:19;24.83;37.72
71088;SHT31;58747;50.674;4.616;2022-07-04T15:59:44;24.79;38.04
71088;SHT31;58747;50.674;4.616;2022-07-04T16:02:09;24.76;39.94
71088;SHT31;58747;50.674;4.616;2022-07-04T16:04:35;24.72;39.26
71088;SHT31;58747;50.674;4.616;2022-07-04T16:07:00;24.73;38.08